createdAt,value
2018-07-10T00:02:12.866Z,99.10
2018-07-10T00:06:56.818Z,99.10
2018-07-10T00:09:35.924Z,98.20
2018-07-10T00:12:03.887Z,98.80
2018-07-10T00:14:31.852Z,98.70
2018-07-10T00:16:59.842Z,98.50
2018-07-10T00:19:27.788Z,97.30
2018-07-10T00:21:55.852Z,96.70
2018-07-10T00:24:23.912Z,95.40
2018-07-10T00:26:51.858Z,95.00
2018-07-10T00:29:19.832Z,94.70
2018-07-10T00:31:47.836Z,94.20
2018-07-10T00:34:15.881Z,93.90
2018-07-10T00:36:43.871Z,94.30
2018-07-10T00:39:11.883Z,94.20
2018-07-10T00:41:41.592Z,94.30
2018-07-10T00:46:39.071Z,94.50
2018-07-10T00:49:07.093Z,94.90
2018-07-10T00:51:36.726Z,94.50
2018-07-10T00:54:04.718Z,94.50
2018-07-10T00:56:32.736Z,94.50
2018-07-10T00:59:03.026Z,94.60
2018-07-10T01:01:31.932Z,95.20
2018-07-10T01:03:59.985Z,96.70
2018-07-10T01:06:27.988Z,96.50
2018-07-10T01:08:55.962Z,96.50
2018-07-10T01:11:24.040Z,96.30
2018-07-10T01:13:52.075Z,96.40
2018-07-10T01:16:25.616Z,96.50
2018-07-10T01:18:55.904Z,96.60
2018-07-10T01:21:25.007Z,96.80
2018-07-10T01:23:57.766Z,97.30
2018-07-10T01:26:26.976Z,97.60
2018-07-10T01:28:58.267Z,98.20
2018-07-10T01:31:26.315Z,99.00
2018-07-10T01:33:54.380Z,99.20
2018-07-10T01:36:22.437Z,99.40
2018-07-10T01:38:50.445Z,98.60
2018-07-10T01:41:18.522Z,98.80
2018-07-10T01:43:46.529Z,99.30
2018-07-10T01:46:14.583Z,99.20
2018-07-10T01:48:42.560Z,99.40
2018-07-10T01:51:10.627Z,99.20
2018-07-10T01:53:38.637Z,98.60
2018-07-10T01:56:06.704Z,98.20
2018-07-10T01:58:34.660Z,97.90
2018-07-10T02:01:02.596Z,97.90
2018-07-10T02:03:30.639Z,98.40
2018-07-10T02:05:58.673Z,98.70
2018-07-10T02:08:26.721Z,98.90
2018-07-10T02:10:54.689Z,99.00
2018-07-10T02:13:22.587Z,99.30
2018-07-10T02:15:50.606Z,99.30
2018-07-10T02:18:18.988Z,99.40
2018-07-10T02:21:03.866Z,99.10
2018-07-10T02:23:36.707Z,98.90
2018-07-10T02:26:06.761Z,98.80
2018-07-10T02:28:34.792Z,98.60
2018-07-10T02:31:03.153Z,98.30
2018-07-10T02:33:31.748Z,98.00
2018-07-10T02:35:59.807Z,98.00
2018-07-10T02:38:27.822Z,97.90
2018-07-10T02:40:56.868Z,97.90
2018-07-10T02:43:25.228Z,97.80
2018-07-10T02:45:53.304Z,98.00
2018-07-10T02:48:21.611Z,98.60
2018-07-10T02:50:52.081Z,98.80
2018-07-10T02:53:20.451Z,99.00
2018-07-10T02:55:48.479Z,99.20
2018-07-10T02:58:16.537Z,99.40
2018-07-10T03:00:44.532Z,99.50
2018-07-10T03:03:12.531Z,99.50
2018-07-10T03:05:40.569Z,99.70
2018-07-10T03:08:08.548Z,99.50
2018-07-10T03:10:36.571Z,99.70
2018-07-10T03:13:04.602Z,99.70
2018-07-10T03:15:32.725Z,99.90
2018-07-10T03:18:00.698Z,99.90
2018-07-10T03:20:28.786Z,99.90
2018-07-10T03:22:56.786Z,99.90
2018-07-10T03:25:24.865Z,99.90
2018-07-10T03:27:53.013Z,99.90
2018-07-10T03:30:21.204Z,99.90
2018-07-10T03:32:49.292Z,99.90
2018-07-10T03:35:17.249Z,99.90
2018-07-10T03:37:45.368Z,99.90
2018-07-10T03:40:13.343Z,99.90
2018-07-10T03:42:41.364Z,99.90
2018-07-10T03:45:10.017Z,99.90
2018-07-10T03:47:38.097Z,99.90
2018-07-10T03:52:35.161Z,99.90
2018-07-10T03:57:33.328Z,99.90
2018-07-10T04:00:09.606Z,99.90
2018-07-10T04:05:08.251Z,99.90
2018-07-10T04:07:36.327Z,99.90
2018-07-10T04:10:04.424Z,99.90
2018-07-10T04:12:35.196Z,99.90
2018-07-10T04:15:04.057Z,99.90
2018-07-10T04:17:45.447Z,99.50
2018-07-10T04:20:16.509Z,99.60
2018-07-10T04:22:51.390Z,99.40
2018-07-10T04:25:19.382Z,98.90
2018-07-10T04:27:54.867Z,98.50
2018-07-10T04:30:31.886Z,97.90
2018-07-10T04:32:59.891Z,97.40
2018-07-10T04:35:28.433Z,97.30
2018-07-10T04:37:56.590Z,97.00
2018-07-10T04:40:26.119Z,96.90
2018-07-10T04:42:59.664Z,96.90
2018-07-10T04:45:35.410Z,97.00
2018-07-10T04:48:03.394Z,97.20
2018-07-10T04:50:35.289Z,97.20
2018-07-10T04:53:08.665Z,97.30
2018-07-10T04:55:40.586Z,96.90
2018-07-10T04:58:16.242Z,96.50
2018-07-10T05:00:49.486Z,95.50
2018-07-10T05:03:19.846Z,95.30
2018-07-10T05:05:47.853Z,95.10
2018-07-10T05:08:17.962Z,95.00
2018-07-10T05:10:46.524Z,95.10
2018-07-10T05:13:14.601Z,95.00
2018-07-10T05:18:11.071Z,94.70
2018-07-10T05:20:43.019Z,94.50
2018-07-10T05:23:13.012Z,94.40
2018-07-10T05:25:43.794Z,94.50
2018-07-10T05:28:11.893Z,94.60
2018-07-10T05:30:42.483Z,94.70
2018-07-10T05:33:12.128Z,94.80
2018-07-10T05:35:40.648Z,94.90
2018-07-10T05:38:08.739Z,94.90
2018-07-10T05:40:37.322Z,95.10
2018-07-10T05:43:13.759Z,95.00
2018-07-10T05:45:42.410Z,95.20
2018-07-10T05:48:10.918Z,95.10
2018-07-10T05:50:39.560Z,94.90
2018-07-10T05:53:09.789Z,94.60
2018-07-10T05:55:44.025Z,94.00
2018-07-10T05:58:12.110Z,93.40
2018-07-10T06:00:40.273Z,93.10
2018-07-10T06:03:08.234Z,92.30
2018-07-10T06:05:36.276Z,91.60
2018-07-10T06:08:04.412Z,91.40
2018-07-10T06:10:32.819Z,91.10
2018-07-10T06:13:01.564Z,90.60
2018-07-10T06:15:29.870Z,90.50
2018-07-10T06:17:57.987Z,90.40
2018-07-10T06:20:26.307Z,90.00
2018-07-10T06:22:56.292Z,90.20
2018-07-10T06:25:24.308Z,90.80
2018-07-10T06:28:15.293Z,90.40
2018-07-10T06:30:43.357Z,90.30
2018-07-10T06:33:23.888Z,90.60
2018-07-10T06:36:29.853Z,90.80
2018-07-10T06:41:29.565Z,90.60
2018-07-10T06:43:58.109Z,90.80
2018-07-10T06:46:40.313Z,90.50
2018-07-10T06:49:18.501Z,90.20
2018-07-10T06:51:46.552Z,90.20
2018-07-10T06:54:14.549Z,90.20
2018-07-10T06:56:46.486Z,89.70
2018-07-10T06:59:14.674Z,88.50
2018-07-10T07:01:42.771Z,87.90
2018-07-10T07:04:10.951Z,87.90
2018-07-10T07:06:39.050Z,87.90
2018-07-10T07:09:07.077Z,88.70
2018-07-10T07:11:35.066Z,88.60
2018-07-10T07:14:03.178Z,87.10
2018-07-10T07:16:31.167Z,87.00
2018-07-10T07:19:00.467Z,87.00
2018-07-10T07:24:18.952Z,87.30
2018-07-10T07:26:46.955Z,86.70
2018-07-10T07:29:14.971Z,86.30
2018-07-10T07:31:42.959Z,86.20
2018-07-10T07:34:11.091Z,85.90
2018-07-10T07:36:39.153Z,86.20
2018-07-10T07:39:08.013Z,85.70
2018-07-10T07:41:35.996Z,85.10
2018-07-10T07:44:04.257Z,84.80
2018-07-10T07:46:32.218Z,84.20
2018-07-10T07:49:00.280Z,82.80
2018-07-10T07:51:28.329Z,81.00
2018-07-10T07:53:56.354Z,81.20
2018-07-10T07:56:24.489Z,81.90
2018-07-10T07:58:52.521Z,81.80
2018-07-10T08:01:20.608Z,82.80
2018-07-10T08:03:50.003Z,83.40
2018-07-10T08:06:18.100Z,83.40
2018-07-10T08:08:46.091Z,84.00
2018-07-10T08:11:14.136Z,84.60
2018-07-10T08:13:42.167Z,85.70
2018-07-10T08:16:10.237Z,85.60
2018-07-10T08:18:38.184Z,85.60
2018-07-10T08:21:06.485Z,85.60
2018-07-10T08:23:34.481Z,85.70
2018-07-10T08:26:02.447Z,86.00
2018-07-10T08:28:30.548Z,85.90
2018-07-10T08:30:58.578Z,85.10
2018-07-10T08:33:26.707Z,84.50
2018-07-10T08:35:54.674Z,85.90
2018-07-10T08:38:36.082Z,86.50
2018-07-10T08:41:04.175Z,86.20
2018-07-10T08:43:32.596Z,86.50
2018-07-10T08:46:00.705Z,87.90
2018-07-10T08:48:28.822Z,91.70
2018-07-10T08:50:57.753Z,93.20
2018-07-10T08:53:25.815Z,93.60
2018-07-10T08:55:53.909Z,95.00
2018-07-10T08:58:22.559Z,95.70
2018-07-10T09:00:50.565Z,95.00
2018-07-10T09:03:18.677Z,94.80
2018-07-10T09:05:46.697Z,95.20
2018-07-10T09:11:07.613Z,95.30
2018-07-10T09:13:35.559Z,94.80
2018-07-10T09:16:03.555Z,94.60
2018-07-10T09:18:32.265Z,96.00
2018-07-10T09:21:00.226Z,95.60
2018-07-10T09:23:28.275Z,95.60
2018-07-10T09:25:59.148Z,96.50
2018-07-10T09:28:30.502Z,96.60
2018-07-10T09:30:58.890Z,95.30
2018-07-10T09:33:26.972Z,95.60
2018-07-10T09:40:51.067Z,92.20
2018-07-10T09:43:19.098Z,93.40
2018-07-10T09:45:47.155Z,94.60
2018-07-10T09:48:15.192Z,95.50
2018-07-10T09:50:43.267Z,95.30
2018-07-10T09:53:11.327Z,95.20
2018-07-10T09:55:39.362Z,94.90
2018-07-10T09:58:07.436Z,94.20
2018-07-10T10:00:41.233Z,93.00
2018-07-10T10:03:09.239Z,92.20
2018-07-10T10:05:39.559Z,91.70
2018-07-10T10:08:07.704Z,91.10
2018-07-10T10:10:35.863Z,90.10
2018-07-10T10:13:03.965Z,88.20
2018-07-10T10:15:33.090Z,86.50
2018-07-10T10:18:03.955Z,86.70
2018-07-10T10:20:32.137Z,86.00
2018-07-10T10:23:02.624Z,84.70
2018-07-10T10:25:32.237Z,84.60
2018-07-10T10:28:00.401Z,84.30
2018-07-10T10:30:28.590Z,84.00
2018-07-10T10:32:57.110Z,84.30
2018-07-10T10:35:25.152Z,84.20
2018-07-10T10:37:53.131Z,84.30
2018-07-10T10:40:21.233Z,83.80
2018-07-10T10:42:49.642Z,83.50
2018-07-10T10:45:18.169Z,84.00
2018-07-10T10:47:46.405Z,83.90
2018-07-10T10:50:14.484Z,83.70
2018-07-10T10:52:43.098Z,83.70
2018-07-10T10:55:11.078Z,84.60
2018-07-10T10:57:40.631Z,86.00
2018-07-10T11:00:08.617Z,85.70
2018-07-10T11:02:36.756Z,85.90
2018-07-10T11:05:04.785Z,86.60
2018-07-10T11:07:34.370Z,88.20
2018-07-10T11:10:02.795Z,87.80
2018-07-10T11:12:31.386Z,87.20
2018-07-10T11:14:59.904Z,86.80
2018-07-10T11:17:35.325Z,86.30
2018-07-10T11:20:12.680Z,86.00
2018-07-10T11:23:20.233Z,85.50
2018-07-10T11:25:49.278Z,85.40
2018-07-10T11:28:17.304Z,85.70
2018-07-10T11:30:45.329Z,86.30
2018-07-10T11:33:13.353Z,86.80
2018-07-10T11:35:41.362Z,87.70
2018-07-10T11:38:11.672Z,89.00
2018-07-10T11:40:41.679Z,89.70
2018-07-10T11:43:10.595Z,90.30
2018-07-10T11:45:38.728Z,90.60
2018-07-10T11:48:06.917Z,90.80
2018-07-10T11:50:34.957Z,91.00
2018-07-10T11:53:03.017Z,91.30
2018-07-10T11:55:30.969Z,91.90
2018-07-10T11:57:59.246Z,92.50
2018-07-10T12:00:27.342Z,92.90
2018-07-10T12:02:55.383Z,93.20
2018-07-10T12:05:23.482Z,93.20
2018-07-10T12:07:53.736Z,93.60
2018-07-10T12:10:26.091Z,94.10
2018-07-10T12:12:54.366Z,94.40
2018-07-10T12:15:23.058Z,94.80
2018-07-10T12:17:53.755Z,94.80
2018-07-10T12:20:25.583Z,94.80
2018-07-10T12:25:21.382Z,94.60
2018-07-10T12:27:49.471Z,94.60
2018-07-10T12:30:19.997Z,94.60
2018-07-10T12:32:48.152Z,94.10
2018-07-10T12:35:16.154Z,92.90
2018-07-10T12:37:44.270Z,91.80
2018-07-10T12:40:12.306Z,89.30
2018-07-10T12:42:40.609Z,86.60
2018-07-10T12:45:09.908Z,84.70
2018-07-10T12:47:37.998Z,85.20
2018-07-10T12:50:06.724Z,83.20
2018-07-10T12:52:34.748Z,83.70
2018-07-10T12:55:03.231Z,85.80
2018-07-10T12:57:41.860Z,87.80
2018-07-10T13:00:09.877Z,88.30
2018-07-10T13:02:52.898Z,88.40
2018-07-10T13:05:22.291Z,88.90
2018-07-10T13:07:50.291Z,88.20
2018-07-10T13:10:18.399Z,87.30
2018-07-10T13:12:46.439Z,85.60
2018-07-10T13:15:14.584Z,85.30
2018-07-10T13:17:45.759Z,84.60
2018-07-10T13:20:14.111Z,84.10
2018-07-10T13:22:42.174Z,82.90
2018-07-10T13:25:10.142Z,81.60
2018-07-10T13:27:38.198Z,79.30
2018-07-10T13:30:06.156Z,76.90
2018-07-10T13:32:34.126Z,76.90
2018-07-10T13:35:02.151Z,77.50
2018-07-10T13:37:31.190Z,78.90
2018-07-10T13:40:02.965Z,79.90
2018-07-10T13:42:39.494Z,79.70
2018-07-10T13:45:07.529Z,78.10
2018-07-10T13:47:35.579Z,76.80
2018-07-10T13:50:03.780Z,75.40
2018-07-10T13:52:31.909Z,73.70
2018-07-10T13:54:59.940Z,73.70
2018-07-10T13:57:27.935Z,72.40
2018-07-10T13:59:56.349Z,73.00
2018-07-10T14:02:24.417Z,73.90
2018-07-10T14:04:52.382Z,75.70
2018-07-10T14:07:20.322Z,77.80
2018-07-10T14:09:48.379Z,83.20
2018-07-10T14:12:16.466Z,83.70
2018-07-10T14:14:44.509Z,83.40
2018-07-10T14:17:12.622Z,81.40
2018-07-10T14:19:41.008Z,79.80
2018-07-10T14:22:09.103Z,79.80
2018-07-10T14:24:37.259Z,79.30
2018-07-10T14:27:05.275Z,79.30
2018-07-10T14:29:33.409Z,78.90
2018-07-10T14:34:29.907Z,78.50
2018-07-10T14:36:57.926Z,79.60
2018-07-10T14:39:25.928Z,80.80
2018-07-10T14:41:55.816Z,81.40
2018-07-10T14:44:25.139Z,81.20
2018-07-10T14:46:53.221Z,81.80
2018-07-10T14:49:21.172Z,81.50
2018-07-10T14:51:51.502Z,80.40
2018-07-10T14:54:19.652Z,78.60
2018-07-10T14:56:48.246Z,78.00
2018-07-10T14:59:16.255Z,78.50
2018-07-10T15:01:44.293Z,79.40
2018-07-10T15:04:12.385Z,80.60
2018-07-10T15:06:40.352Z,80.80
2018-07-10T15:09:09.106Z,81.80
2018-07-10T15:11:37.132Z,83.10
2018-07-10T15:14:08.626Z,83.40
2018-07-10T15:16:42.145Z,83.20
2018-07-10T15:19:10.671Z,83.40
2018-07-10T15:21:38.716Z,85.40
2018-07-10T15:24:07.857Z,87.60
2018-07-10T15:26:35.873Z,89.80
2018-07-10T15:29:03.971Z,91.10
2018-07-10T15:31:32.053Z,91.70
2018-07-10T15:34:00.549Z,92.70
2018-07-10T15:36:28.630Z,94.40
2018-07-10T15:38:57.290Z,95.60
2018-07-10T15:41:27.214Z,96.80
2018-07-10T15:43:55.239Z,97.60
2018-07-10T15:46:23.216Z,98.00
2018-07-10T15:48:51.269Z,99.00
2018-07-10T15:51:19.229Z,99.10
2018-07-10T15:53:47.286Z,99.20
2018-07-10T15:56:15.275Z,99.00
2018-07-10T15:58:43.430Z,98.70
2018-07-10T16:01:11.528Z,98.30
2018-07-10T16:03:39.545Z,98.30
2018-07-10T16:06:07.628Z,97.90
2018-07-10T16:08:37.257Z,97.50
2018-07-10T16:11:05.525Z,96.90
2018-07-10T16:13:37.972Z,96.30
2018-07-10T16:16:07.697Z,95.70
2018-07-10T16:18:36.172Z,95.30
2018-07-10T16:21:04.356Z,95.00
2018-07-10T16:23:33.257Z,95.20
2018-07-10T16:26:05.555Z,95.20
2018-07-10T16:28:37.084Z,95.70
2018-07-10T16:31:05.084Z,95.70
2018-07-10T16:33:33.749Z,95.80
2018-07-10T16:36:05.050Z,96.30
2018-07-10T16:38:33.725Z,97.00
2018-07-10T16:41:07.404Z,96.90
2018-07-10T16:43:35.439Z,96.20
2018-07-10T16:46:04.317Z,92.80
2018-07-10T16:48:38.628Z,90.30
2018-07-10T16:51:10.678Z,85.20
2018-07-10T16:53:38.820Z,75.80
2018-07-10T16:56:06.763Z,73.30
2018-07-10T16:58:38.677Z,67.80
2018-07-10T17:01:07.233Z,65.30
2018-07-10T17:03:35.771Z,62.40
2018-07-10T17:06:03.773Z,58.60
2018-07-10T17:08:31.813Z,57.90
2018-07-10T17:10:59.796Z,57.20
2018-07-10T17:13:27.805Z,56.90
2018-07-10T17:15:55.858Z,56.60
2018-07-10T17:18:23.972Z,56.40
2018-07-10T17:20:51.953Z,56.30
2018-07-10T17:23:20.022Z,55.50
2018-07-10T17:25:48.238Z,55.10
2018-07-10T17:28:17.538Z,55.20
2018-07-10T17:30:45.553Z,55.10
2018-07-10T17:33:13.680Z,54.00
2018-07-10T17:35:41.561Z,53.10
2018-07-10T17:38:09.653Z,53.40
2018-07-10T17:40:38.018Z,53.30
2018-07-10T17:43:07.609Z,52.40
2018-07-10T17:45:35.874Z,52.40
2018-07-10T17:48:03.953Z,52.20
2018-07-10T17:50:32.022Z,51.70
2018-07-10T17:53:00.085Z,52.30
2018-07-10T17:55:28.199Z,52.20
2018-07-10T18:00:27.489Z,51.40
2018-07-10T18:02:55.462Z,50.70
2018-07-10T18:05:23.494Z,50.10
2018-07-10T18:07:51.675Z,50.30
2018-07-10T18:10:19.749Z,49.50
2018-07-10T18:12:47.742Z,49.80
2018-07-10T18:15:15.856Z,50.10
2018-07-10T18:20:11.647Z,50.10
2018-07-10T18:22:39.825Z,51.40
2018-07-10T18:25:07.846Z,51.70
2018-07-10T18:27:35.928Z,52.10
2018-07-10T18:30:03.917Z,52.60
2018-07-10T18:32:32.750Z,53.40
2018-07-10T18:35:00.800Z,54.10
2018-07-10T18:37:28.834Z,54.80
2018-07-10T18:39:56.817Z,54.80
2018-07-10T18:42:25.084Z,54.90
2018-07-10T18:44:53.038Z,55.00
2018-07-10T18:47:20.833Z,55.30
2018-07-10T18:49:50.846Z,55.60
2018-07-10T18:52:23.393Z,55.90
2018-07-10T18:54:51.527Z,56.10
2018-07-10T18:57:28.403Z,56.20
2018-07-10T19:00:05.019Z,56.40
2018-07-10T19:02:43.632Z,56.80
2018-07-10T19:05:11.644Z,57.40
2018-07-10T19:07:41.083Z,57.70
2018-07-10T19:10:09.364Z,57.50
2018-07-10T19:12:38.057Z,57.60
2018-07-10T19:15:10.435Z,57.30
2018-07-10T19:17:38.446Z,56.90
2018-07-10T19:20:09.388Z,57.00
2018-07-10T19:22:51.115Z,56.80
2018-07-10T19:25:19.138Z,57.60
2018-07-10T19:27:50.641Z,57.70
2018-07-10T19:30:20.208Z,57.30
2018-07-10T19:32:48.331Z,57.60
2018-07-10T19:35:16.345Z,57.50
2018-07-10T19:37:44.397Z,57.50
2018-07-10T19:40:12.392Z,57.50
2018-07-10T19:42:40.620Z,57.60
2018-07-10T19:45:09.165Z,57.50
2018-07-10T19:47:37.142Z,57.60
2018-07-10T19:50:16.053Z,58.10
2018-07-10T19:52:50.317Z,58.50
2018-07-10T19:55:18.673Z,58.70
2018-07-10T19:58:11.039Z,58.90
2018-07-10T20:00:44.387Z,59.20
2018-07-10T20:03:36.052Z,59.70
2018-07-10T20:06:09.115Z,60.30
2018-07-10T20:08:39.835Z,61.00
2018-07-10T20:11:09.836Z,61.60
2018-07-10T20:13:43.144Z,62.30
2018-07-10T20:16:22.459Z,63.00
2018-07-10T20:20:15.525Z,63.70
2018-07-10T20:22:54.769Z,64.40
2018-07-10T20:25:27.388Z,64.90
2018-07-10T20:28:09.020Z,65.70
2018-07-10T20:31:20.302Z,66.10
2018-07-10T20:33:58.432Z,66.30
2018-07-10T20:36:26.470Z,65.30
2018-07-10T20:38:56.085Z,65.10
2018-07-10T20:41:35.556Z,64.70
2018-07-10T20:44:05.145Z,64.60
2018-07-10T20:46:40.309Z,64.60
2018-07-10T20:49:08.417Z,64.60
2018-07-10T20:52:15.527Z,64.70
2018-07-10T20:57:20.501Z,65.30
2018-07-10T20:59:49.511Z,65.50
2018-07-10T21:02:32.643Z,66.00
2018-07-10T21:05:10.874Z,66.40
2018-07-10T21:07:48.914Z,67.10
2018-07-10T21:10:24.360Z,68.00
2018-07-10T21:13:05.830Z,69.10
2018-07-10T21:15:41.480Z,69.10
2018-07-10T21:18:20.410Z,69.40
2018-07-10T21:22:01.452Z,70.10
2018-07-10T21:24:43.408Z,70.80
2018-07-10T21:27:13.359Z,71.40
2018-07-10T21:29:53.081Z,72.70
2018-07-10T21:32:27.952Z,73.50
2018-07-10T21:34:57.550Z,74.00
2018-07-10T21:37:38.122Z,75.50
2018-07-10T21:40:19.782Z,75.80
2018-07-10T21:42:58.405Z,76.70
2018-07-10T21:45:33.706Z,77.20
2018-07-10T21:50:17.708Z,78.80
2018-07-10T21:52:45.764Z,78.90
2018-07-10T21:55:13.868Z,80.30
2018-07-10T21:57:43.333Z,80.80
2018-07-10T22:00:11.381Z,81.90
2018-07-10T22:02:39.504Z,81.60
2018-07-10T22:05:07.548Z,82.00
2018-07-10T22:07:36.748Z,81.70
2018-07-10T22:10:07.259Z,81.20
2018-07-10T22:12:45.780Z,81.40
2018-07-10T22:15:13.843Z,81.60
2018-07-10T22:17:43.019Z,81.20
2018-07-10T22:20:11.803Z,81.70
2018-07-10T22:22:39.853Z,81.60
2018-07-10T22:25:08.153Z,81.80
2018-07-10T22:30:11.420Z,83.20
2018-07-10T22:32:44.937Z,83.30
2018-07-10T22:35:15.090Z,84.60
2018-07-10T22:37:43.155Z,84.70
2018-07-10T22:42:39.048Z,85.60
2018-07-10T22:45:07.073Z,85.70
2018-07-10T22:47:38.688Z,86.10
2018-07-10T22:50:08.479Z,86.30
2018-07-10T22:52:38.984Z,86.80
2018-07-10T22:55:06.744Z,86.20
2018-07-10T22:57:34.573Z,87.00
2018-07-10T23:00:02.353Z,87.40
2018-07-10T23:02:30.586Z,87.40
2018-07-10T23:04:58.316Z,87.30
2018-07-10T23:07:26.055Z,88.30
2018-07-10T23:09:53.818Z,88.90
2018-07-10T23:12:21.585Z,88.60
2018-07-10T23:14:49.310Z,89.30
2018-07-10T23:17:17.072Z,88.80
2018-07-10T23:19:44.801Z,89.50
2018-07-10T23:22:12.444Z,90.50
2018-07-10T23:24:40.211Z,90.20
2018-07-10T23:27:07.937Z,90.40
2018-07-10T23:29:38.757Z,90.80
2018-07-10T23:32:06.780Z,90.80
2018-07-10T23:34:34.525Z,91.20
2018-07-10T23:37:02.739Z,91.20
2018-07-10T23:39:37.791Z,91.50
2018-07-10T23:42:10.251Z,91.60
2018-07-10T23:44:43.015Z,91.70
2018-07-10T23:47:19.804Z,91.70
2018-07-10T23:49:52.298Z,91.80
2018-07-10T23:53:32.911Z,92.10
2018-07-10T23:56:00.557Z,91.90
2018-07-10T23:58:28.333Z,92.40
